Casselberry, Florida
Current Conditions -  °F | °C
As of 8:53 AM on Friday 31 Oct 2014 (Local Time) from KORL Reporting Station
Broken Clouds Broken Clouds  
Wind Chill: 69°   Ceiling: 9500
Heat Index: 69°   Visibility: 10mi
Dew Point: 59°   Wind: 8mph
Humidity: 70%   Direction: 300°WNW
Pressure: 29.87"   Gusts: NA
Location:  28.67°N, 81.34°W
Report Text: KORL 311253Z 30007KT 10SM FEW060 SCT070 BKN095 21/15 A2987 RMK AO2 SLP119 T02060150
Loading
Personal Weather Stations






























Interactive Weather Map
Tropical Storm Tracking
New forecast layout! Learn more

10-Day Weather Forecast

Advertisements
Track Severe Weather on mobile